Time;durP1;ratioP1;P1;durP2;ratioP2;P2;SDS_P1;SDS_P2;PMS_P1;PMS_P2;Temp;Humidity;BMP_temperature;BMP_pressure;BME280_temperature;BME280_humidity;BME280_pressure;Samples;Min_cycle;Max_cycle;Signal;HPM_P1;HPM_P2
2023/01/20 00:01:12;;;;;;;18.33;11.43;;;-0.10;99.90;;;;;;5052930;28;20198;-75
2023/01/20 00:03:39;;;;;;;22.67;11.27;;;-0.10;99.90;;;;;;5051479;28;20214;-75
2023/01/20 00:06:04;;;;;;;20.73;12.17;;;0.00;99.90;;;;;;5051515;28;20186;-75
2023/01/20 00:08:30;;;;;;;20.30;11.53;;;0.00;99.90;;;;;;5051463;28;20198;-75
2023/01/20 00:10:55;;;;;;;17.90;11.73;;;0.00;99.90;;;;;;5050150;28;20271;-75
2023/01/20 00:13:21;;;;;;;22.93;12.57;;;0.10;99.90;;;;;;5049560;28;20263;-75
2023/01/20 00:15:47;;;;;;;19.37;12.03;;;0.10;99.90;;;;;;5052587;28;20261;-75
2023/01/20 00:18:13;;;;;;;22.97;12.47;;;0.10;99.90;;;;;;5052639;28;20698;-75
2023/01/20 00:20:38;;;;;;;20.13;12.07;;;0.20;99.90;;;;;;5051065;28;20553;-75
2023/01/20 00:23:04;;;;;;;20.07;12.30;;;0.20;99.90;;;;;;5052740;28;20179;-75
2023/01/20 00:25:30;;;;;;;21.97;12.83;;;0.20;99.90;;;;;;5051688;28;20662;-74
2023/01/20 00:27:55;;;;;;;25.47;13.17;;;0.30;99.90;;;;;;5052467;28;20191;-74
2023/01/20 00:30:21;;;;;;;20.83;12.00;;;0.30;99.90;;;;;;5051060;28;20186;-76
2023/01/20 00:32:46;;;;;;;21.83;12.40;;;0.40;99.90;;;;;;5056419;28;20246;-75
2023/01/20 00:35:12;;;;;;;30.03;13.07;;;0.40;99.90;;;;;;5058220;28;20658;-75
2023/01/20 00:37:38;;;;;;;22.77;13.03;;;0.50;99.90;;;;;;5059056;28;20542;-75
2023/01/20 00:40:04;;;;;;;23.17;12.73;;;0.40;99.90;;;;;;5059192;28;20170;-75
2023/01/20 00:42:30;;;;;;;22.30;12.40;;;0.50;99.90;;;;;;5057916;28;20203;-75
2023/01/20 00:44:56;;;;;;;23.03;13.70;;;0.50;99.90;;;;;;5059086;28;20538;-75
2023/01/20 00:47:22;;;;;;;16.93;11.80;;;0.50;99.90;;;;;;5057684;28;20198;-75
2023/01/20 00:49:48;;;;;;;33.10;13.53;;;0.60;99.90;;;;;;5059440;28;20178;-77
2023/01/20 00:52:14;;;;;;;19.27;12.13;;;0.60;99.90;;;;;;5058954;28;20233;-75
2023/01/20 00:54:39;;;;;;;26.83;13.33;;;0.60;99.90;;;;;;5058911;28;20164;-75
2023/01/20 00:57:05;;;;;;;24.90;12.90;;;0.60;99.90;;;;;;5058977;28;20180;-75
2023/01/20 00:59:31;;;;;;;23.70;13.90;;;0.70;99.90;;;;;;5057995;28;20191;-75
2023/01/20 01:01:57;;;;;;;21.17;12.23;;;0.70;99.90;;;;;;5058841;28;20575;-75
2023/01/20 01:04:22;;;;;;;21.90;12.27;;;0.70;99.90;;;;;;5058869;28;20231;-75
2023/01/20 01:06:50;;;;;;;25.53;13.27;;;0.70;99.90;;;;;;5058887;28;20604;-75
2023/01/20 01:09:16;;;;;;;24.13;13.33;;;0.70;99.90;;;;;;5059003;28;20199;-75
2023/01/20 01:11:41;;;;;;;20.60;12.97;;;0.70;99.90;;;;;;5058690;28;20218;-76
2023/01/20 01:14:07;;;;;;;30.87;14.53;;;0.80;99.90;;;;;;5058841;28;20623;-75
2023/01/20 01:16:33;;;;;;;25.50;14.43;;;0.80;99.90;;;;;;5056223;28;20270;-75
2023/01/20 01:18:58;;;;;;;27.70;14.13;;;0.80;99.90;;;;;;5058734;28;20582;-75
2023/01/20 01:21:24;;;;;;;24.97;14.00;;;0.80;99.90;;;;;;5058658;28;20215;-75
2023/01/20 01:23:52;;;;;;;27.47;13.77;;;0.80;99.90;;;;;;5057516;28;20230;-75
2023/01/20 01:26:17;;;;;;;24.77;14.17;;;0.90;99.90;;;;;;5058858;28;20172;-75
2023/01/20 01:28:45;;;;;;;26.10;15.87;;;0.90;99.90;;;;;;5058600;28;20268;-76
2023/01/20 01:31:11;;;;;;;27.90;14.60;;;0.90;99.90;;;;;;5058834;28;20195;-75
2023/01/20 01:33:37;;;;;;;30.33;15.17;;;0.90;99.90;;;;;;5057344;28;20602;-75
2023/01/20 01:36:03;;;;;;;26.33;15.90;;;0.90;99.90;;;;;;5057455;28;20183;-75
2023/01/20 01:38:30;;;;;;;27.67;14.83;;;0.90;99.90;;;;;;5057255;28;20198;-75
2023/01/20 01:40:55;;;;;;;33.00;16.00;;;0.90;99.90;;;;;;5058726;28;20202;-75
2023/01/20 01:43:33;;;;;;;30.43;17.27;;;0.90;99.90;;;;;;5055999;28;20180;-75
2023/01/20 01:45:58;;;;;;;31.90;16.47;;;1.00;99.90;;;;;;5054113;28;20186;-75
2023/01/20 01:48:35;;;;;;;29.77;17.03;;;0.90;99.90;;;;;;5055215;28;20659;-75
2023/01/20 01:51:17;;;;;;;35.40;18.33;;;1.00;99.90;;;;;;5053928;28;20207;-76
2023/01/20 01:53:47;;;;;;;37.33;19.03;;;1.00;99.90;;;;;;5054505;28;20261;-75
2023/01/20 01:56:14;;;;;;;34.30;19.57;;;1.00;99.90;;;;;;5055116;28;20175;-75
2023/01/20 01:58:45;;;;;;;27.97;16.87;;;1.00;99.90;;;;;;5053956;28;20186;-75
2023/01/20 02:01:11;;;;;;;38.67;19.33;;;1.00;99.90;;;;;;5055180;28;20210;-75
2023/01/20 02:03:46;;;;;;;37.93;20.20;;;1.10;99.90;;;;;;5055079;28;20643;-75
2023/01/20 02:06:13;;;;;;;37.87;20.20;;;1.00;99.90;;;;;;5055139;28;20254;-75
2023/01/20 02:08:39;;;;;;;41.80;20.37;;;1.10;99.90;;;;;;5052952;28;20294;-76
2023/01/20 02:11:04;;;;;;;41.80;21.83;;;1.10;99.90;;;;;;5035038;28;20200;-75
2023/01/20 02:13:30;;;;;;;44.00;22.67;;;1.10;99.90;;;;;;5033728;28;20187;-75
2023/01/20 02:16:16;;;;;;;41.67;22.10;;;1.10;99.90;;;;;;5034846;28;20176;-75
2023/01/20 02:19:12;;;;;;;43.47;21.33;;;1.10;99.90;;;;;;5034790;28;20693;-75
2023/01/20 02:21:53;;;;;;;42.43;22.57;;;1.10;99.90;;;;;;5033456;28;20215;-75
2023/01/20 02:24:37;;;;;;;45.47;23.07;;;1.10;99.90;;;;;;5035170;28;20161;-75
2023/01/20 02:27:12;;;;;;;47.00;23.17;;;1.10;99.90;;;;;;5049037;28;20256;-75
2023/01/20 02:29:38;;;;;;;44.97;22.43;;;1.10;99.90;;;;;;5053489;28;20179;-75
2023/01/20 02:32:24;;;;;;;43.30;22.90;;;1.10;99.90;;;;;;5054650;28;20183;-75
2023/01/20 02:34:57;;;;;;;38.93;21.43;;;1.10;99.90;;;;;;5053295;28;20168;-75
2023/01/20 02:37:31;;;;;;;42.93;23.33;;;1.10;99.90;;;;;;5053503;28;20179;-75
2023/01/20 02:40:24;;;;;;;41.40;22.57;;;1.10;99.90;;;;;;5053147;28;20241;-75
2023/01/20 02:43:07;;;;;;;38.50;21.20;;;1.10;99.90;;;;;;5053522;28;20202;-75
2023/01/20 02:45:43;;;;;;;41.60;22.50;;;1.10;99.90;;;;;;5054510;28;20164;-75
2023/01/20 02:48:35;;;;;;;45.83;23.93;;;1.10;99.90;;;;;;5054160;28;20175;-75
2023/01/20 02:51:09;;;;;;;45.97;22.23;;;1.10;99.90;;;;;;5038366;28;20214;-75
2023/01/20 02:53:51;;;;;;;43.53;21.70;;;1.10;99.90;;;;;;5052335;28;20663;-75
2023/01/20 02:56:20;;;;;;;43.23;20.50;;;1.10;99.90;;;;;;5054011;28;20210;-75
2023/01/20 02:58:49;;;;;;;41.50;21.77;;;1.10;99.90;;;;;;5054145;28;20280;-75
2023/01/20 03:01:38;;;;;;;39.97;20.93;;;1.10;99.90;;;;;;5054163;28;20272;-75
2023/01/20 03:04:06;;;;;;;41.47;21.43;;;1.20;99.90;;;;;;5052913;28;20174;-75
2023/01/20 03:09:57;;;;;;;42.57;19.60;;;1.20;99.90;;;;;;5052792;28;20248;-75
2023/01/20 03:12:47;;;;;;;42.67;20.97;;;1.10;99.90;;;;;;5051326;28;20195;-75
2023/01/20 03:15:14;;;;;;;40.33;21.23;;;1.10;99.90;;;;;;5053964;28;20160;-75
2023/01/20 03:17:39;;;;;;;43.97;21.60;;;1.20;99.90;;;;;;5052505;28;20176;-75
2023/01/20 03:20:06;;;;;;;39.17;20.97;;;1.20;99.90;;;;;;5051585;28;20254;-76
2023/01/20 03:22:31;;;;;;;36.83;20.43;;;1.20;99.90;;;;;;5053850;28;20214;-75
2023/01/20 03:25:13;;;;;;;43.13;19.77;;;1.20;99.90;;;;;;5031102;28;20253;-75
2023/01/20 03:27:40;;;;;;;46.80;21.20;;;1.20;99.90;;;;;;5053561;28;20290;-76
2023/01/20 03:30:16;;;;;;;38.20;19.50;;;1.10;99.90;;;;;;5037177;28;20187;-75
2023/01/20 03:32:48;;;;;;;33.20;18.70;;;1.20;99.90;;;;;;5033651;28;20546;-75
2023/01/20 03:35:15;;;;;;;34.00;19.50;;;1.20;99.90;;;;;;5033579;28;20164;-75
2023/01/20 03:37:42;;;;;;;38.70;19.30;;;1.20;99.90;;;;;;5050495;28;20219;-75
2023/01/20 03:40:09;;;;;;;31.70;19.03;;;1.10;99.90;;;;;;5052018;28;20662;-75
2023/01/20 03:42:43;;;;;;;37.40;19.53;;;1.20;99.90;;;;;;5051906;28;20234;-75
2023/01/20 03:45:19;;;;;;;42.43;20.47;;;1.20;99.90;;;;;;5053374;28;20199;-75
2023/01/20 03:47:57;;;;;;;38.07;20.40;;;1.10;99.90;;;;;;5052646;28;20642;-76
2023/01/20 03:50:46;;;;;;;42.03;18.97;;;1.20;99.90;;;;;;5052046;28;20168;-76
2023/01/20 03:53:25;;;;;;;41.47;17.23;;;1.20;99.90;;;;;;5053234;28;20598;-75
2023/01/20 03:56:28;;;;;;;35.07;17.50;;;1.20;99.90;;;;;;5053216;28;20229;-74
2023/01/20 03:58:58;;;;;;;33.27;16.10;;;1.20;99.90;;;;;;5052220;28;20266;-74
2023/01/20 04:01:32;;;;;;;38.27;18.43;;;1.20;99.90;;;;;;5051865;28;20210;-75
2023/01/20 04:03:59;;;;;;;28.70;16.10;;;1.20;99.90;;;;;;5053380;28;20167;-75
2023/01/20 04:06:27;;;;;;;32.00;14.93;;;1.20;99.90;;;;;;5053105;28;20206;-75
2023/01/20 04:09:01;;;;;;;32.77;15.37;;;1.20;99.90;;;;;;5051952;28;20207;-75
2023/01/20 04:11:27;;;;;;;34.30;15.50;;;1.20;99.90;;;;;;5051283;28;20213;-75
2023/01/20 04:13:53;;;;;;;31.80;14.80;;;1.20;99.90;;;;;;5052983;28;20167;-75
2023/01/20 04:16:19;;;;;;;32.10;16.83;;;1.20;99.90;;;;;;5052818;28;20175;-75
2023/01/20 04:18:47;;;;;;;33.70;16.33;;;1.20;99.90;;;;;;5051920;28;20184;-75
2023/01/20 04:21:35;;;;;;;32.83;15.63;;;1.20;99.90;;;;;;5051331;28;20215;-75
2023/01/20 04:24:10;;;;;;;29.83;15.33;;;1.20;99.90;;;;;;5053092;28;20190;-75
2023/01/20 04:26:35;;;;;;;30.90;15.80;;;1.20;99.90;;;;;;5053131;28;20244;-75
2023/01/20 04:29:07;;;;;;;29.67;14.63;;;1.10;99.90;;;;;;5053018;28;20211;-75
2023/01/20 04:31:36;;;;;;;29.10;14.57;;;1.20;99.90;;;;;;5051956;28;20574;-75
2023/01/20 04:34:02;;;;;;;26.80;13.83;;;1.20;99.90;;;;;;5052647;28;20234;-75
2023/01/20 04:36:27;;;;;;;28.80;14.33;;;1.20;99.90;;;;;;5052827;28;20203;-75
2023/01/20 04:38:53;;;;;;;27.47;14.13;;;1.20;99.90;;;;;;5052801;28;20202;-75
2023/01/20 04:41:19;;;;;;;26.30;12.67;;;1.20;99.90;;;;;;5052009;28;20233;-75
2023/01/20 04:43:45;;;;;;;26.13;13.97;;;1.20;99.90;;;;;;5052841;28;20735;-75
2023/01/20 04:46:12;;;;;;;25.27;13.50;;;1.20;99.90;;;;;;5052551;28;20191;-75
2023/01/20 04:48:38;;;;;;;28.67;15.17;;;1.30;99.90;;;;;;5052677;28;20199;-75
2023/01/20 04:51:05;;;;;;;28.27;15.47;;;1.20;99.90;;;;;;5051546;28;20206;-75
2023/01/20 04:53:31;;;;;;;28.60;14.00;;;1.20;99.90;;;;;;5052684;28;20183;-75
2023/01/20 04:55:56;;;;;;;32.10;15.20;;;1.20;99.90;;;;;;5051270;28;20182;-75
2023/01/20 04:58:22;;;;;;;30.27;15.20;;;1.20;99.90;;;;;;5051855;28;20279;-75
2023/01/20 05:00:48;;;;;;;27.87;15.40;;;1.20;99.90;;;;;;5049535;28;20226;-75
2023/01/20 05:03:13;;;;;;;30.20;16.17;;;1.20;99.90;;;;;;5045027;28;20187;-76
2023/01/20 05:05:39;;;;;;;32.33;15.70;;;1.30;99.90;;;;;;5045839;28;20181;-74
2023/01/20 05:08:05;;;;;;;30.13;16.57;;;1.30;99.90;;;;;;5032947;28;20296;-74
2023/01/20 05:10:31;;;;;;;33.37;15.57;;;1.30;99.90;;;;;;5047778;28;20754;-75
2023/01/20 05:12:58;;;;;;;39.07;16.83;;;1.30;99.90;;;;;;5050261;28;20180;-75
2023/01/20 05:15:23;;;;;;;30.17;16.20;;;1.30;99.90;;;;;;5044027;28;20547;-75
2023/01/20 05:17:49;;;;;;;31.30;16.70;;;1.30;99.90;;;;;;5051936;28;20254;-75
2023/01/20 05:20:15;;;;;;;30.20;17.13;;;1.30;99.90;;;;;;5044886;28;20594;-75
2023/01/20 05:22:40;;;;;;;29.77;15.80;;;1.30;99.90;;;;;;5052637;28;20214;-75
2023/01/20 05:25:06;;;;;;;28.80;16.37;;;1.30;99.90;;;;;;5054313;28;20186;-75
2023/01/20 05:27:36;;;;;;;35.07;17.17;;;1.30;99.90;;;;;;5054962;28;20223;-77
2023/01/20 05:30:03;;;;;;;31.57;17.37;;;1.40;99.90;;;;;;5045675;28;20172;-76
2023/01/20 05:32:29;;;;;;;30.50;16.30;;;1.40;99.90;;;;;;5054822;28;20199;-77
2023/01/20 05:34:54;;;;;;;34.23;17.40;;;1.40;99.90;;;;;;5055990;28;20202;-76
2023/01/20 05:37:20;;;;;;;31.47;16.07;;;1.40;99.90;;;;;;5055820;28;20560;-76
2023/01/20 05:39:45;;;;;;;32.57;16.47;;;1.30;99.90;;;;;;5053965;28;20552;-78
2023/01/20 05:42:11;;;;;;;31.03;16.90;;;1.30;99.90;;;;;;5055956;28;20561;-77
2023/01/20 05:44:37;;;;;;;30.60;16.60;;;1.30;99.90;;;;;;5055768;28;20171;-77
2023/01/20 05:47:02;;;;;;;33.87;17.50;;;1.40;99.90;;;;;;5052326;28;20257;-77
2023/01/20 05:49:28;;;;;;;34.67;16.47;;;1.30;99.90;;;;;;5055669;28;20210;-77
2023/01/20 05:51:53;;;;;;;28.70;15.23;;;1.30;99.90;;;;;;5055423;28;20186;-77
2023/01/20 05:54:19;;;;;;;28.03;15.50;;;1.30;99.90;;;;;;5054243;28;20175;-77
2023/01/20 05:56:47;;;;;;;27.87;15.30;;;1.30;99.90;;;;;;5053481;28;20736;-77
2023/01/20 05:59:12;;;;;;;28.60;15.43;;;1.40;99.90;;;;;;5054347;28;20179;-77
2023/01/20 06:01:39;;;;;;;26.77;14.87;;;1.30;99.90;;;;;;5055566;28;20277;-77
2023/01/20 06:04:05;;;;;;;28.73;15.83;;;1.40;99.90;;;;;;5055295;28;20188;-77
2023/01/20 06:06:30;;;;;;;32.60;15.23;;;1.40;99.90;;;;;;5053465;28;20717;-77
2023/01/20 06:08:56;;;;;;;31.13;17.13;;;1.40;99.90;;;;;;5055261;28;20199;-77
2023/01/20 06:11:21;;;;;;;26.97;14.67;;;1.30;99.90;;;;;;5055344;28;20237;-77
2023/01/20 06:13:47;;;;;;;26.07;13.53;;;1.30;99.90;;;;;;5053863;28;20525;-77
2023/01/20 06:16:13;;;;;;;23.67;14.07;;;1.30;99.90;;;;;;5052484;28;20611;-77
2023/01/20 06:18:39;;;;;;;22.23;13.10;;;1.30;99.90;;;;;;5054464;28;20187;-77
2023/01/20 06:21:05;;;;;;;24.57;14.07;;;1.30;99.90;;;;;;5055135;28;20211;-77
2023/01/20 06:23:31;;;;;;;30.20;13.90;;;1.30;99.90;;;;;;5053734;28;20233;-76
2023/01/20 06:26:02;;;;;;;24.13;14.20;;;1.30;99.90;;;;;;5054027;28;20168;-77
2023/01/20 06:28:28;;;;;;;27.27;14.50;;;1.30;99.90;;;;;;5053501;28;20191;-76
2023/01/20 06:31:02;;;;;;;24.23;13.77;;;1.30;99.90;;;;;;5054198;28;20191;-76
2023/01/20 06:33:28;;;;;;;26.33;13.03;;;1.30;99.90;;;;;;5053584;28;20180;-75
2023/01/20 06:35:55;;;;;;;30.30;14.77;;;1.30;99.90;;;;;;5053139;28;20176;-78
2023/01/20 06:38:24;;;;;;;23.57;12.87;;;1.30;99.90;;;;;;5050528;28;20215;-79
2023/01/20 06:40:54;;;;;;;24.27;13.63;;;1.30;99.90;;;;;;5058447;28;20191;-79
2023/01/20 06:43:20;;;;;;;25.20;14.07;;;1.30;99.90;;;;;;5059269;28;20180;-79
2023/01/20 06:45:45;;;;;;;22.30;13.37;;;1.30;99.90;;;;;;5057466;28;20259;-78
2023/01/20 06:48:11;;;;;;;25.73;14.40;;;1.30;99.90;;;;;;5052678;28;20207;-78
2023/01/20 06:50:36;;;;;;;31.40;15.03;;;1.40;99.90;;;;;;5054625;28;20556;-78
2023/01/20 06:53:02;;;;;;;23.77;13.13;;;1.30;99.90;;;;;;5054964;28;20170;-77
2023/01/20 06:55:27;;;;;;;25.30;12.77;;;1.40;99.90;;;;;;5054674;28;20172;-77
2023/01/20 06:57:53;;;;;;;26.03;14.83;;;1.40;99.90;;;;;;5053396;28;20183;-77
2023/01/20 07:00:19;;;;;;;25.87;14.73;;;1.40;99.90;;;;;;5053169;28;20194;-78
2023/01/20 07:02:47;;;;;;;27.17;13.80;;;1.40;99.90;;;;;;5054757;28;20180;-77
2023/01/20 07:05:13;;;;;;;26.43;14.27;;;1.40;99.90;;;;;;5053542;28;20266;-76
2023/01/20 07:07:38;;;;;;;24.10;14.67;;;1.40;99.90;;;;;;5052836;28;20325;-75
2023/01/20 07:10:04;;;;;;;24.10;13.67;;;1.50;99.90;;;;;;5054260;28;20619;-75
2023/01/20 07:12:29;;;;;;;24.17;13.83;;;1.40;99.90;;;;;;5054154;28;20278;-76
2023/01/20 07:14:55;;;;;;;23.27;13.87;;;1.50;99.90;;;;;;5052806;28;20262;-75
2023/01/20 07:17:21;;;;;;;25.23;14.83;;;1.50;99.90;;;;;;5054125;28;20167;-75
2023/01/20 07:19:46;;;;;;;28.67;14.50;;;1.40;99.90;;;;;;5052702;28;20175;-75
2023/01/20 07:22:12;;;;;;;24.40;14.53;;;1.40;99.90;;;;;;5053945;28;20234;-75
2023/01/20 07:24:37;;;;;;;22.40;14.23;;;1.40;99.90;;;;;;5052502;28;20682;-75
2023/01/20 07:27:03;;;;;;;24.47;15.20;;;1.50;99.90;;;;;;5052794;28;20203;-75
2023/01/20 07:29:28;;;;;;;24.43;14.97;;;1.40;99.90;;;;;;5053831;28;20176;-76
2023/01/20 07:31:54;;;;;;;24.80;15.63;;;1.40;99.90;;;;;;5053608;28;20198;-76
2023/01/20 07:34:20;;;;;;;23.50;14.77;;;1.40;99.90;;;;;;5052420;28;20172;-75
2023/01/20 07:36:45;;;;;;;29.47;16.10;;;1.40;99.90;;;;;;5053558;28;20242;-75
2023/01/20 07:39:11;;;;;;;23.03;15.27;;;1.50;99.90;;;;;;5053854;28;20183;-76
2023/01/20 07:41:37;;;;;;;22.80;13.97;;;1.50;99.90;;;;;;5051570;28;20191;-75
2023/01/20 07:44:03;;;;;;;23.90;15.53;;;1.50;99.90;;;;;;5053772;28;20613;-75
2023/01/20 07:46:28;;;;;;;26.60;15.70;;;1.50;99.90;;;;;;5053720;28;20539;-76
2023/01/20 07:48:54;;;;;;;26.00;15.90;;;1.50;99.90;;;;;;5053345;28;20576;-75
2023/01/20 07:51:20;;;;;;;26.67;15.80;;;1.50;99.90;;;;;;5052086;28;20195;-75
2023/01/20 07:53:48;;;;;;;23.40;14.80;;;1.50;99.90;;;;;;5052028;28;20175;-75
2023/01/20 07:56:16;;;;;;;25.47;14.47;;;1.50;99.90;;;;;;5053392;28;20643;-76
2023/01/20 07:58:44;;;;;;;22.63;14.97;;;1.50;99.90;;;;;;5053349;28;20677;-76
2023/01/20 08:01:19;;;;;;;20.63;13.30;;;1.50;99.90;;;;;;5051911;28;20206;-76
2023/01/20 08:03:45;;;;;;;23.20;14.07;;;1.50;99.90;;;;;;5053269;28;20163;-75
2023/01/20 08:06:13;;;;;;;22.77;14.53;;;1.50;99.90;;;;;;5053189;28;20168;-76
2023/01/20 08:08:38;;;;;;;26.60;14.93;;;1.50;99.90;;;;;;5053425;28;20226;-76
2023/01/20 08:11:06;;;;;;;21.80;14.10;;;1.50;99.90;;;;;;5053553;28;20674;-75
2023/01/20 08:13:31;;;;;;;24.93;15.83;;;1.50;99.90;;;;;;5053182;28;20179;-75
2023/01/20 08:16:05;;;;;;;26.70;16.40;;;1.50;99.90;;;;;;5053287;28;20663;-76
2023/01/20 08:18:31;;;;;;;21.23;13.60;;;1.50;99.90;;;;;;5052948;28;20206;-76
2023/01/20 08:20:57;;;;;;;25.73;14.50;;;1.50;99.90;;;;;;5052902;28;20686;-76
2023/01/20 08:23:23;;;;;;;26.83;14.43;;;1.50;99.90;;;;;;5053128;28;20179;-76
2023/01/20 08:25:48;;;;;;;25.67;15.60;;;1.50;99.90;;;;;;5051570;28;20179;-76
2023/01/20 08:28:14;;;;;;;25.50;14.03;;;1.50;99.90;;;;;;5053109;28;20736;-76
2023/01/20 08:30:42;;;;;;;22.33;13.20;;;1.50;99.90;;;;;;5053242;28;20192;-76
2023/01/20 08:33:08;;;;;;;22.40;14.00;;;1.50;99.90;;;;;;5051516;28;20250;-76
2023/01/20 08:35:35;;;;;;;22.37;13.37;;;1.60;99.90;;;;;;5052758;28;20171;-76
2023/01/20 08:38:02;;;;;;;23.93;13.97;;;1.60;99.90;;;;;;5052811;28;20348;-76
2023/01/20 08:40:27;;;;;;;25.17;13.50;;;1.60;99.90;;;;;;5051378;28;20171;-76
2023/01/20 08:42:53;;;;;;;22.93;12.83;;;1.60;99.90;;;;;;5052727;28;20179;-76
2023/01/20 08:45:18;;;;;;;20.13;13.13;;;1.60;99.90;;;;;;5052651;28;20172;-76
2023/01/20 08:47:44;;;;;;;22.73;13.30;;;1.60;99.90;;;;;;5051273;28;20203;-76
2023/01/20 08:50:12;;;;;;;20.43;12.73;;;1.60;99.90;;;;;;5052624;28;20539;-76
2023/01/20 08:52:38;;;;;;;21.43;12.93;;;1.60;99.90;;;;;;5052513;28;20191;-76
2023/01/20 08:55:04;;;;;;;27.77;13.77;;;1.60;99.90;;;;;;5055469;28;20182;-76
2023/01/20 08:57:30;;;;;;;20.20;13.17;;;1.70;99.90;;;;;;5056669;28;20183;-76
2023/01/20 08:59:55;;;;;;;28.40;14.13;;;1.70;99.90;;;;;;5056543;28;20174;-76
2023/01/20 09:02:23;;;;;;;26.03;14.03;;;1.70;99.90;;;;;;5056578;28;20199;-76
2023/01/20 09:04:49;;;;;;;26.60;14.13;;;1.70;99.90;;;;;;5055203;28;20182;-76
2023/01/20 09:07:18;;;;;;;22.63;13.90;;;1.70;99.90;;;;;;5055091;28;20290;-76
2023/01/20 09:09:45;;;;;;;25.67;14.40;;;1.70;99.90;;;;;;5056916;28;20206;-78
2023/01/20 09:12:11;;;;;;;26.80;13.70;;;1.70;99.90;;;;;;5056408;28;20283;-78
2023/01/20 09:14:36;;;;;;;26.87;13.83;;;1.70;99.90;;;;;;5056316;28;20202;-77
2023/01/20 09:17:02;;;;;;;29.07;13.50;;;1.70;99.90;;;;;;5056250;28;20536;-77
2023/01/20 09:19:30;;;;;;;23.70;13.50;;;1.70;99.90;;;;;;5056269;28;20594;-77
2023/01/20 09:21:56;;;;;;;27.87;14.40;;;1.70;99.90;;;;;;5055975;28;20583;-77
2023/01/20 09:24:22;;;;;;;21.67;13.70;;;1.70;99.90;;;;;;5054846;28;20186;-77
2023/01/20 09:26:48;;;;;;;21.27;13.30;;;1.70;99.90;;;;;;5056415;28;20199;-78
2023/01/20 09:29:17;;;;;;;22.57;14.13;;;1.70;99.90;;;;;;5054827;28;20256;-77
2023/01/20 09:31:50;;;;;;;23.60;13.77;;;1.70;99.90;;;;;;5055901;28;20663;-78
2023/01/20 09:34:22;;;;;;;23.27;13.77;;;1.80;99.90;;;;;;5056036;28;20166;-77
2023/01/20 09:36:53;;;;;;;22.00;13.77;;;1.80;99.90;;;;;;5056019;28;20156;-77
2023/01/20 09:45:58;;;;;;;28.27;14.67;;;1.80;99.90;;;;;;5056149;28;20171;-77
2023/01/20 09:54:45;;;;;;;24.93;15.03;;;1.90;99.90;;;;;;5057622;28;20158;-78
2023/01/20 09:57:12;;;;;;;25.30;13.97;;;2.00;99.90;;;;;;5056319;28;20173;-78
2023/01/20 09:59:46;;;;;;;25.73;14.47;;;2.00;99.90;;;;;;5054298;28;20179;-78
2023/01/20 10:02:27;;;;;;;26.17;15.57;;;2.00;99.90;;;;;;5054277;28;20199;-78
2023/01/20 10:04:59;;;;;;;21.30;13.37;;;2.10;99.90;;;;;;5053458;28;20178;-78
2023/01/20 10:07:40;;;;;;;21.60;14.37;;;2.10;99.90;;;;;;5056030;28;20192;-80
2023/01/20 10:10:53;;;;;;;21.50;13.40;;;2.20;99.90;;;;;;5058138;28;20179;-81
2023/01/20 10:13:25;;;;;;;21.93;12.93;;;2.30;99.90;;;;;;5050171;28;20187;-81
2023/01/20 10:15:55;;;;;;;22.73;13.97;;;2.30;99.90;;;;;;5057817;28;20340;-80
2023/01/20 10:18:36;;;;;;;26.23;14.47;;;2.30;99.90;;;;;;5058350;28;20174;-81
2023/01/20 10:21:16;;;;;;;22.77;14.00;;;2.30;99.90;;;;;;5060478;28;20233;-81
2023/01/20 10:24:17;;;;;;;21.00;13.90;;;2.30;99.90;;;;;;5058673;28;20175;-81
2023/01/20 10:26:53;;;;;;;22.10;14.33;;;2.30;99.90;;;;;;5037243;28;20187;-80
2023/01/20 10:29:38;;;;;;;19.43;12.23;;;2.40;99.90;;;;;;5059917;28;20577;-81
2023/01/20 10:32:35;;;;;;;22.33;12.93;;;2.40;99.90;;;;;;5058605;28;20191;-81
2023/01/20 10:35:20;;;;;;;23.60;13.30;;;2.50;99.90;;;;;;5058339;28;20515;-81
2023/01/20 10:37:45;;;;;;;20.83;12.93;;;2.50;99.90;;;;;;5060832;28;20179;-82
2023/01/20 10:40:26;;;;;;;21.53;13.47;;;2.50;99.90;;;;;;5061780;28;20175;-82
2023/01/20 10:42:56;;;;;;;21.93;14.03;;;2.50;99.90;;;;;;5061933;28;20214;-82
2023/01/20 10:45:49;;;;;;;21.80;13.97;;;2.50;99.90;;;;;;5060219;28;20183;-82
2023/01/20 10:48:48;;;;;;;26.97;14.50;;;2.50;99.90;;;;;;5060539;28;20222;-82
2023/01/20 10:51:53;;;;;;;19.03;12.10;;;2.50;99.90;;;;;;5060183;28;20198;-80
2023/01/20 10:55:23;;;;;;;23.90;13.30;;;2.60;99.90;;;;;;5023285;28;20187;-82
2023/01/20 10:57:57;;;;;;;19.60;12.93;;;2.50;99.90;;;;;;5018435;28;20186;-81
2023/01/20 11:00:27;;;;;;;24.90;12.40;;;2.60;99.90;;;;;;5000901;28;20595;-81
2023/01/20 11:02:55;;;;;;;19.20;11.80;;;2.60;99.90;;;;;;5039924;28;20191;-80
2023/01/20 11:05:24;;;;;;;20.50;12.90;;;2.60;99.90;;;;;;5057222;28;20191;-80
2023/01/20 11:07:52;;;;;;;23.67;11.97;;;2.60;99.90;;;;;;5058699;28;20284;-80
2023/01/20 11:10:22;;;;;;;18.53;11.63;;;2.60;99.90;;;;;;5059741;28;20175;-80
2023/01/20 11:12:56;;;;;;;20.43;11.57;;;2.60;99.90;;;;;;5058604;28;20613;-80
2023/01/20 11:15:29;;;;;;;16.67;10.47;;;2.60;99.90;;;;;;5061278;28;20551;-79
2023/01/20 11:18:20;;;;;;;17.57;10.83;;;2.70;99.90;;;;;;5062285;28;20181;-79
2023/01/20 11:21:00;;;;;;;15.73;11.27;;;2.60;99.90;;;;;;5060527;28;20715;-79
2023/01/20 11:23:36;;;;;;;16.63;10.07;;;2.70;99.90;;;;;;5057965;28;20179;-78
2023/01/20 11:26:22;;;;;;;17.53;10.90;;;2.70;99.90;;;;;;5055276;28;20160;-78
2023/01/20 11:29:22;;;;;;;17.73;10.70;;;2.70;99.90;;;;;;5055724;28;20209;-78
2023/01/20 11:31:53;;;;;;;23.73;10.43;;;2.70;99.90;;;;;;5053774;28;20192;-78
2023/01/20 11:34:30;;;;;;;16.30;9.87;;;2.70;99.90;;;;;;5053841;28;20168;-78
2023/01/20 11:37:05;;;;;;;13.33;9.30;;;2.70;99.90;;;;;;5053923;28;20187;-78
2023/01/20 11:39:32;;;;;;;13.50;9.23;;;2.70;99.90;;;;;;5053692;28;20228;-78
2023/01/20 11:42:43;;;;;;;13.27;8.73;;;2.70;99.90;;;;;;5054583;28;20187;-78
2023/01/20 11:45:29;;;;;;;13.40;8.87;;;2.70;99.90;;;;;;5053846;28;20686;-77
2023/01/20 11:48:13;;;;;;;17.40;9.37;;;2.80;99.90;;;;;;5052495;28;20657;-78
2023/01/20 11:50:49;;;;;;;13.53;8.90;;;2.80;99.90;;;;;;5053210;28;20191;-77
2023/01/20 11:53:32;;;;;;;17.17;9.10;;;2.80;99.90;;;;;;5053885;28;20167;-78
2023/01/20 11:56:25;;;;;;;16.07;8.80;;;2.90;99.90;;;;;;5053554;28;20230;-78
2023/01/20 11:59:00;;;;;;;14.90;8.03;;;2.90;99.90;;;;;;5052554;28;20188;-78
2023/01/20 12:01:29;;;;;;;16.20;8.50;;;3.00;99.90;;;;;;5052323;28;20577;-78
2023/01/20 12:04:21;;;;;;;14.40;8.10;;;3.00;99.90;;;;;;5052106;28;20222;-78
2023/01/20 12:07:07;;;;;;;12.07;7.63;;;3.00;99.90;;;;;;5043824;28;20183;-78
2023/01/20 12:09:37;;;;;;;13.97;7.73;;;3.00;99.90;;;;;;5053248;28;20183;-77
2023/01/20 12:12:30;;;;;;;13.20;7.70;;;3.10;99.90;;;;;;5053398;28;20192;-78
2023/01/20 12:15:08;;;;;;;11.57;8.03;;;3.00;99.90;;;;;;5053822;28;20163;-78
2023/01/20 12:17:57;;;;;;;9.87;7.43;;;3.10;99.90;;;;;;5053070;28;20527;-78
2023/01/20 12:20:31;;;;;;;12.23;7.50;;;3.10;99.90;;;;;;5053224;28;20183;-77
2023/01/20 12:23:09;;;;;;;11.77;6.90;;;3.10;99.90;;;;;;5051710;28;20194;-76
2023/01/20 12:26:00;;;;;;;12.33;6.60;;;3.10;99.90;;;;;;5053034;28;20172;-77
2023/01/20 12:29:06;;;;;;;8.53;5.87;;;3.10;99.90;;;;;;5045452;28;20234;-76
2023/01/20 12:31:31;;;;;;;9.13;6.27;;;3.10;99.90;;;;;;5052767;28;20278;-77
2023/01/20 12:34:03;;;;;;;10.13;6.50;;;3.20;99.90;;;;;;5053054;28;20203;-76
2023/01/20 12:36:55;;;;;;;9.07;6.57;;;3.20;99.90;;;;;;5052887;28;20171;-76
2023/01/20 12:39:59;;;;;;;10.47;7.43;;;3.10;99.90;;;;;;5052674;28;20251;-75
2023/01/20 12:42:53;;;;;;;8.93;6.83;;;3.10;99.90;;;;;;5045205;28;20209;-77
2023/01/20 12:45:47;;;;;;;12.27;7.00;;;3.10;99.90;;;;;;5052961;28;20641;-76
2023/01/20 12:48:31;;;;;;;10.23;6.30;;;3.10;99.90;;;;;;5052487;28;20677;-76
2023/01/20 12:51:27;;;;;;;11.90;6.83;;;3.10;99.90;;;;;;5053416;28;20202;-77
2023/01/20 12:54:04;;;;;;;12.13;6.63;;;3.10;99.90;;;;;;5053445;28;20171;-78
2023/01/20 12:56:48;;;;;;;10.77;6.63;;;3.10;99.90;;;;;;5054654;28;20226;-78
2023/01/20 12:59:29;;;;;;;9.07;6.40;;;3.10;99.90;;;;;;5053878;28;20171;-78
2023/01/20 13:02:01;;;;;;;9.07;6.53;;;3.20;99.90;;;;;;5054171;28;20206;-78
2023/01/20 13:04:29;;;;;;;9.43;6.40;;;3.10;99.90;;;;;;5052296;28;20274;-78
2023/01/20 13:07:32;;;;;;;8.73;6.40;;;3.20;99.90;;;;;;5054391;28;20214;-78
2023/01/20 13:10:22;;;;;;;9.63;6.67;;;3.10;99.90;;;;;;5052837;28;20182;-78
2023/01/20 13:13:18;;;;;;;10.40;6.53;;;3.10;99.90;;;;;;5053044;28;20199;-77
2023/01/20 13:15:52;;;;;;;10.20;6.00;;;3.20;99.90;;;;;;5054111;28;20160;-77
2023/01/20 13:18:35;;;;;;;9.77;6.43;;;3.10;99.90;;;;;;5054808;28;20164;-78